sensor_id;sensor_type;location;lat;lon;timestamp;P1;durP1;ratioP1;P2;durP2;ratioP2
19111;SDS011;9688;51.906;8.376;2023-05-10T00:01:15;17.17;;;11.07;;
19111;SDS011;9688;51.906;8.376;2023-05-10T00:04:00;19.20;;;11.73;;
19111;SDS011;9688;51.906;8.376;2023-05-10T00:06:45;18.77;;;11.07;;
19111;SDS011;9688;51.906;8.376;2023-05-10T00:09:33;21.70;;;11.50;;
19111;SDS011;9688;51.906;8.376;2023-05-10T00:12:19;19.73;;;11.87;;
19111;SDS011;9688;51.906;8.376;2023-05-10T00:15:05;15.60;;;11.60;;
19111;SDS011;9688;51.906;8.376;2023-05-10T00:17:53;19.50;;;12.20;;
19111;SDS011;9688;51.906;8.376;2023-05-10T00:20:39;20.87;;;12.70;;
19111;SDS011;9688;51.906;8.376;2023-05-10T00:23:24;27.47;;;14.43;;
19111;SDS011;9688;51.906;8.376;2023-05-10T00:26:10;21.63;;;13.00;;
19111;SDS011;9688;51.906;8.376;2023-05-10T00:28:56;27.17;;;14.33;;
19111;SDS011;9688;51.906;8.376;2023-05-10T00:31:42;22.83;;;12.47;;
19111;SDS011;9688;51.906;8.376;2023-05-10T00:34:32;19.47;;;11.67;;
19111;SDS011;9688;51.906;8.376;2023-05-10T00:37:17;23.87;;;13.80;;
19111;SDS011;9688;51.906;8.376;2023-05-10T00:40:04;20.47;;;12.90;;
19111;SDS011;9688;51.906;8.376;2023-05-10T00:42:51;17.20;;;11.50;;
19111;SDS011;9688;51.906;8.376;2023-05-10T00:45:36;17.87;;;11.17;;
19111;SDS011;9688;51.906;8.376;2023-05-10T00:48:24;16.97;;;11.07;;
19111;SDS011;9688;51.906;8.376;2023-05-10T00:51:11;18.60;;;11.53;;
19111;SDS011;9688;51.906;8.376;2023-05-10T00:53:58;17.93;;;11.57;;
19111;SDS011;9688;51.906;8.376;2023-05-10T00:56:44;17.70;;;11.43;;
19111;SDS011;9688;51.906;8.376;2023-05-10T00:59:32;18.43;;;12.03;;
19111;SDS011;9688;51.906;8.376;2023-05-10T01:02:18;20.23;;;12.87;;
19111;SDS011;9688;51.906;8.376;2023-05-10T01:05:03;23.37;;;12.87;;
19111;SDS011;9688;51.906;8.376;2023-05-10T01:07:52;17.77;;;11.93;;
19111;SDS011;9688;51.906;8.376;2023-05-10T01:10:38;19.37;;;12.33;;
19111;SDS011;9688;51.906;8.376;2023-05-10T01:13:31;25.03;;;13.83;;
19111;SDS011;9688;51.906;8.376;2023-05-10T01:16:21;27.03;;;13.73;;
19111;SDS011;9688;51.906;8.376;2023-05-10T01:19:09;22.17;;;13.23;;
19111;SDS011;9688;51.906;8.376;2023-05-10T01:22:03;22.80;;;13.17;;
19111;SDS011;9688;51.906;8.376;2023-05-10T01:28:39;27.73;;;14.17;;
19111;SDS011;9688;51.906;8.376;2023-05-10T01:35:03;24.23;;;13.17;;
19111;SDS011;9688;51.906;8.376;2023-05-10T01:37:52;20.13;;;12.23;;
19111;SDS011;9688;51.906;8.376;2023-05-10T01:40:48;19.47;;;10.97;;
19111;SDS011;9688;51.906;8.376;2023-05-10T01:43:52;14.53;;;9.03;;
19111;SDS011;9688;51.906;8.376;2023-05-10T01:46:40;14.37;;;8.90;;
19111;SDS011;9688;51.906;8.376;2023-05-10T01:49:29;15.80;;;8.90;;
19111;SDS011;9688;51.906;8.376;2023-05-10T01:52:18;13.30;;;8.53;;
19111;SDS011;9688;51.906;8.376;2023-05-10T01:55:07;14.47;;;9.60;;
19111;SDS011;9688;51.906;8.376;2023-05-10T01:57:58;13.90;;;9.23;;
19111;SDS011;9688;51.906;8.376;2023-05-10T02:00:47;15.27;;;8.50;;
19111;SDS011;9688;51.906;8.376;2023-05-10T02:03:35;10.53;;;7.33;;
19111;SDS011;9688;51.906;8.376;2023-05-10T02:06:25;15.10;;;7.87;;
19111;SDS011;9688;51.906;8.376;2023-05-10T02:09:12;13.40;;;7.57;;
19111;SDS011;9688;51.906;8.376;2023-05-10T02:11:59;11.07;;;7.57;;
19111;SDS011;9688;51.906;8.376;2023-05-10T02:14:47;12.47;;;7.77;;
19111;SDS011;9688;51.906;8.376;2023-05-10T02:17:33;16.80;;;7.43;;
19111;SDS011;9688;51.906;8.376;2023-05-10T02:20:20;10.33;;;7.13;;
19111;SDS011;9688;51.906;8.376;2023-05-10T02:23:08;15.77;;;8.50;;
19111;SDS011;9688;51.906;8.376;2023-05-10T02:25:55;11.40;;;7.90;;
19111;SDS011;9688;51.906;8.376;2023-05-10T02:28:43;15.63;;;8.67;;
19111;SDS011;9688;51.906;8.376;2023-05-10T02:31:29;15.70;;;9.63;;
19111;SDS011;9688;51.906;8.376;2023-05-10T02:34:17;15.00;;;9.73;;
19111;SDS011;9688;51.906;8.376;2023-05-10T02:37:02;21.03;;;10.10;;
19111;SDS011;9688;51.906;8.376;2023-05-10T02:39:52;15.73;;;9.50;;
19111;SDS011;9688;51.906;8.376;2023-05-10T02:42:40;17.20;;;10.00;;
19111;SDS011;9688;51.906;8.376;2023-05-10T02:45:29;15.50;;;9.90;;
19111;SDS011;9688;51.906;8.376;2023-05-10T02:48:16;18.57;;;10.77;;
19111;SDS011;9688;51.906;8.376;2023-05-10T02:51:03;18.03;;;9.93;;
19111;SDS011;9688;51.906;8.376;2023-05-10T02:53:51;19.00;;;10.80;;
19111;SDS011;9688;51.906;8.376;2023-05-10T02:56:42;20.07;;;10.27;;
19111;SDS011;9688;51.906;8.376;2023-05-10T02:59:32;17.63;;;10.23;;
19111;SDS011;9688;51.906;8.376;2023-05-10T03:02:18;19.27;;;10.63;;
19111;SDS011;9688;51.906;8.376;2023-05-10T03:05:03;19.03;;;10.93;;
19111;SDS011;9688;51.906;8.376;2023-05-10T03:07:50;26.70;;;12.33;;
19111;SDS011;9688;51.906;8.376;2023-05-10T03:10:38;22.37;;;12.10;;
19111;SDS011;9688;51.906;8.376;2023-05-10T03:13:34;25.13;;;12.47;;
19111;SDS011;9688;51.906;8.376;2023-05-10T03:16:27;20.67;;;10.90;;
19111;SDS011;9688;51.906;8.376;2023-05-10T03:19:21;22.60;;;10.93;;
19111;SDS011;9688;51.906;8.376;2023-05-10T03:22:11;21.03;;;11.30;;
19111;SDS011;9688;51.906;8.376;2023-05-10T03:25:04;19.67;;;10.73;;
19111;SDS011;9688;51.906;8.376;2023-05-10T03:27:53;19.40;;;10.70;;
19111;SDS011;9688;51.906;8.376;2023-05-10T03:30:42;16.53;;;9.93;;
19111;SDS011;9688;51.906;8.376;2023-05-10T03:33:29;14.37;;;8.67;;
19111;SDS011;9688;51.906;8.376;2023-05-10T03:36:15;13.20;;;8.23;;
19111;SDS011;9688;51.906;8.376;2023-05-10T03:39:01;10.60;;;7.17;;
19111;SDS011;9688;51.906;8.376;2023-05-10T03:41:47;10.37;;;6.70;;
19111;SDS011;9688;51.906;8.376;2023-05-10T03:44:33;9.83;;;5.83;;
19111;SDS011;9688;51.906;8.376;2023-05-10T03:47:19;7.17;;;4.43;;
19111;SDS011;9688;51.906;8.376;2023-05-10T03:50:06;4.53;;;3.57;;
19111;SDS011;9688;51.906;8.376;2023-05-10T03:52:52;4.20;;;2.87;;
19111;SDS011;9688;51.906;8.376;2023-05-10T03:55:38;2.60;;;2.40;;
19111;SDS011;9688;51.906;8.376;2023-05-10T03:58:23;2.17;;;1.90;;
19111;SDS011;9688;51.906;8.376;2023-05-10T04:01:08;2.50;;;2.30;;
19111;SDS011;9688;51.906;8.376;2023-05-10T04:03:55;2.70;;;2.50;;
19111;SDS011;9688;51.906;8.376;2023-05-10T04:06:41;2.50;;;2.40;;
19111;SDS011;9688;51.906;8.376;2023-05-10T04:09:26;2.20;;;2.10;;
19111;SDS011;9688;51.906;8.376;2023-05-10T04:12:11;2.40;;;2.30;;
19111;SDS011;9688;51.906;8.376;2023-05-10T04:14:57;2.43;;;2.23;;
19111;SDS011;9688;51.906;8.376;2023-05-10T04:17:42;3.33;;;2.73;;
19111;SDS011;9688;51.906;8.376;2023-05-10T04:20:31;2.77;;;2.57;;
19111;SDS011;9688;51.906;8.376;2023-05-10T04:23:17;2.50;;;2.33;;
19111;SDS011;9688;51.906;8.376;2023-05-10T04:26:03;2.97;;;2.70;;
19111;SDS011;9688;51.906;8.376;2023-05-10T04:28:49;2.90;;;2.70;;
19111;SDS011;9688;51.906;8.376;2023-05-10T04:31:34;4.47;;;4.07;;
19111;SDS011;9688;51.906;8.376;2023-05-10T04:34:20;4.27;;;3.00;;
19111;SDS011;9688;51.906;8.376;2023-05-10T04:37:07;3.10;;;2.90;;
19111;SDS011;9688;51.906;8.376;2023-05-10T04:39:53;3.37;;;3.07;;
19111;SDS011;9688;51.906;8.376;2023-05-10T04:42:39;3.37;;;3.07;;
19111;SDS011;9688;51.906;8.376;2023-05-10T04:45:26;3.23;;;3.03;;
19111;SDS011;9688;51.906;8.376;2023-05-10T04:48:12;4.57;;;3.83;;
19111;SDS011;9688;51.906;8.376;2023-05-10T04:50:57;6.17;;;3.67;;
19111;SDS011;9688;51.906;8.376;2023-05-10T04:53:44;3.80;;;3.50;;
19111;SDS011;9688;51.906;8.376;2023-05-10T04:56:29;4.33;;;3.50;;
19111;SDS011;9688;51.906;8.376;2023-05-10T04:59:15;7.90;;;3.57;;
19111;SDS011;9688;51.906;8.376;2023-05-10T05:02:00;4.43;;;3.93;;
19111;SDS011;9688;51.906;8.376;2023-05-10T05:04:47;4.63;;;3.53;;
19111;SDS011;9688;51.906;8.376;2023-05-10T05:07:33;4.33;;;3.93;;
19111;SDS011;9688;51.906;8.376;2023-05-10T05:10:20;3.87;;;3.47;;
19111;SDS011;9688;51.906;8.376;2023-05-10T05:13:05;6.47;;;3.97;;
19111;SDS011;9688;51.906;8.376;2023-05-10T05:15:51;3.40;;;3.07;;
19111;SDS011;9688;51.906;8.376;2023-05-10T05:18:37;3.10;;;2.90;;
19111;SDS011;9688;51.906;8.376;2023-05-10T05:21:23;3.53;;;3.23;;
19111;SDS011;9688;51.906;8.376;2023-05-10T05:24:11;3.70;;;3.40;;
19111;SDS011;9688;51.906;8.376;2023-05-10T05:26:59;4.00;;;3.00;;
19111;SDS011;9688;51.906;8.376;2023-05-10T05:29:46;7.63;;;3.30;;
19111;SDS011;9688;51.906;8.376;2023-05-10T05:32:31;3.50;;;3.20;;
19111;SDS011;9688;51.906;8.376;2023-05-10T05:35:16;4.90;;;2.93;;
19111;SDS011;9688;51.906;8.376;2023-05-10T05:38:02;4.03;;;3.40;;
19111;SDS011;9688;51.906;8.376;2023-05-10T05:40:48;3.70;;;3.40;;
19111;SDS011;9688;51.906;8.376;2023-05-10T05:43:35;5.47;;;3.70;;
19111;SDS011;9688;51.906;8.376;2023-05-10T05:46:20;6.20;;;4.37;;
19111;SDS011;9688;51.906;8.376;2023-05-10T05:49:08;4.17;;;3.77;;
19111;SDS011;9688;51.906;8.376;2023-05-10T05:51:58;4.07;;;3.67;;
19111;SDS011;9688;51.906;8.376;2023-05-10T05:54:44;3.93;;;3.50;;
19111;SDS011;9688;51.906;8.376;2023-05-10T05:57:30;3.67;;;3.37;;
19111;SDS011;9688;51.906;8.376;2023-05-10T06:00:21;5.50;;;3.83;;
19111;SDS011;9688;51.906;8.376;2023-05-10T06:03:08;5.13;;;3.70;;
19111;SDS011;9688;51.906;8.376;2023-05-10T06:05:54;3.77;;;3.33;;
19111;SDS011;9688;51.906;8.376;2023-05-10T06:08:42;4.27;;;3.20;;
19111;SDS011;9688;51.906;8.376;2023-05-10T06:11:28;4.37;;;3.23;;
19111;SDS011;9688;51.906;8.376;2023-05-10T06:14:14;5.97;;;3.50;;
19111;SDS011;9688;51.906;8.376;2023-05-10T06:17:01;4.03;;;3.27;;
19111;SDS011;9688;51.906;8.376;2023-05-10T06:19:48;3.43;;;3.23;;
19111;SDS011;9688;51.906;8.376;2023-05-10T06:22:34;5.80;;;3.63;;
19111;SDS011;9688;51.906;8.376;2023-05-10T06:25:19;5.30;;;3.17;;
19111;SDS011;9688;51.906;8.376;2023-05-10T06:28:05;3.57;;;3.27;;
19111;SDS011;9688;51.906;8.376;2023-05-10T06:30:51;5.53;;;3.70;;
19111;SDS011;9688;51.906;8.376;2023-05-10T06:33:38;5.73;;;3.33;;
19111;SDS011;9688;51.906;8.376;2023-05-10T06:36:24;5.63;;;4.77;;
19111;SDS011;9688;51.906;8.376;2023-05-10T06:39:10;5.43;;;4.50;;
19111;SDS011;9688;51.906;8.376;2023-05-10T06:41:56;9.00;;;4.30;;
19111;SDS011;9688;51.906;8.376;2023-05-10T06:44:41;6.23;;;4.30;;
19111;SDS011;9688;51.906;8.376;2023-05-10T06:47:27;5.53;;;4.57;;
19111;SDS011;9688;51.906;8.376;2023-05-10T06:50:15;8.20;;;4.97;;
19111;SDS011;9688;51.906;8.376;2023-05-10T06:53:00;8.67;;;4.73;;
19111;SDS011;9688;51.906;8.376;2023-05-10T06:55:46;13.00;;;6.23;;
19111;SDS011;9688;51.906;8.376;2023-05-10T06:58:31;17.50;;;7.50;;
19111;SDS011;9688;51.906;8.376;2023-05-10T07:01:17;17.00;;;8.53;;
19111;SDS011;9688;51.906;8.376;2023-05-10T07:04:03;19.80;;;8.30;;
19111;SDS011;9688;51.906;8.376;2023-05-10T07:06:50;19.27;;;8.40;;
19111;SDS011;9688;51.906;8.376;2023-05-10T07:09:37;19.53;;;8.27;;
19111;SDS011;9688;51.906;8.376;2023-05-10T07:12:23;28.23;;;10.20;;
19111;SDS011;9688;51.906;8.376;2023-05-10T07:15:13;19.80;;;9.27;;
19111;SDS011;9688;51.906;8.376;2023-05-10T07:18:01;22.77;;;10.43;;
19111;SDS011;9688;51.906;8.376;2023-05-10T07:20:51;18.33;;;9.40;;
19111;SDS011;9688;51.906;8.376;2023-05-10T07:23:38;20.10;;;10.17;;
19111;SDS011;9688;51.906;8.376;2023-05-10T07:26:24;21.47;;;9.80;;
19111;SDS011;9688;51.906;8.376;2023-05-10T07:29:10;20.20;;;9.33;;
19111;SDS011;9688;51.906;8.376;2023-05-10T07:31:59;20.07;;;10.20;;
19111;SDS011;9688;51.906;8.376;2023-05-10T07:34:45;19.03;;;8.83;;
19111;SDS011;9688;51.906;8.376;2023-05-10T07:37:30;17.57;;;8.63;;
19111;SDS011;9688;51.906;8.376;2023-05-10T07:40:18;21.83;;;9.53;;
19111;SDS011;9688;51.906;8.376;2023-05-10T07:43:04;16.67;;;9.30;;
19111;SDS011;9688;51.906;8.376;2023-05-10T07:45:50;18.70;;;9.57;;
19111;SDS011;9688;51.906;8.376;2023-05-10T07:48:36;25.57;;;10.40;;
19111;SDS011;9688;51.906;8.376;2023-05-10T07:51:22;18.47;;;10.00;;
19111;SDS011;9688;51.906;8.376;2023-05-10T07:54:09;20.33;;;11.07;;
19111;SDS011;9688;51.906;8.376;2023-05-10T07:56:56;20.60;;;10.33;;
19111;SDS011;9688;51.906;8.376;2023-05-10T07:59:42;20.93;;;11.10;;
19111;SDS011;9688;51.906;8.376;2023-05-10T08:02:34;22.30;;;11.53;;
19111;SDS011;9688;51.906;8.376;2023-05-10T08:05:21;22.97;;;11.87;;
19111;SDS011;9688;51.906;8.376;2023-05-10T08:08:07;19.83;;;10.77;;
19111;SDS011;9688;51.906;8.376;2023-05-10T08:10:53;22.37;;;11.57;;
19111;SDS011;9688;51.906;8.376;2023-05-10T08:13:43;21.60;;;11.67;;
19111;SDS011;9688;51.906;8.376;2023-05-10T08:16:31;24.27;;;13.23;;
19111;SDS011;9688;51.906;8.376;2023-05-10T08:19:18;27.93;;;13.20;;
19111;SDS011;9688;51.906;8.376;2023-05-10T08:22:05;29.53;;;15.03;;
19111;SDS011;9688;51.906;8.376;2023-05-10T08:24:51;30.50;;;15.40;;
19111;SDS011;9688;51.906;8.376;2023-05-10T08:27:37;30.43;;;15.37;;
19111;SDS011;9688;51.906;8.376;2023-05-10T08:30:24;30.90;;;15.60;;
19111;SDS011;9688;51.906;8.376;2023-05-10T08:33:09;30.63;;;15.57;;
19111;SDS011;9688;51.906;8.376;2023-05-10T08:35:54;31.27;;;14.30;;
19111;SDS011;9688;51.906;8.376;2023-05-10T08:38:40;31.00;;;14.63;;
19111;SDS011;9688;51.906;8.376;2023-05-10T08:41:25;25.87;;;14.67;;
19111;SDS011;9688;51.906;8.376;2023-05-10T08:44:11;28.03;;;15.50;;
19111;SDS011;9688;51.906;8.376;2023-05-10T08:46:59;32.93;;;16.37;;
19111;SDS011;9688;51.906;8.376;2023-05-10T08:49:50;32.23;;;15.77;;
19111;SDS011;9688;51.906;8.376;2023-05-10T08:52:39;31.30;;;16.90;;
19111;SDS011;9688;51.906;8.376;2023-05-10T08:55:26;32.43;;;16.87;;
19111;SDS011;9688;51.906;8.376;2023-05-10T08:58:12;29.87;;;17.33;;
19111;SDS011;9688;51.906;8.376;2023-05-10T09:00:59;33.37;;;17.40;;
19111;SDS011;9688;51.906;8.376;2023-05-10T09:03:48;36.87;;;17.87;;
19111;SDS011;9688;51.906;8.376;2023-05-10T09:06:37;33.43;;;17.23;;
19111;SDS011;9688;51.906;8.376;2023-05-10T09:09:24;31.37;;;17.33;;
19111;SDS011;9688;51.906;8.376;2023-05-10T09:12:13;32.70;;;17.63;;
19111;SDS011;9688;51.906;8.376;2023-05-10T09:14:59;33.47;;;16.90;;
19111;SDS011;9688;51.906;8.376;2023-05-10T09:17:46;36.27;;;17.47;;
19111;SDS011;9688;51.906;8.376;2023-05-10T09:20:37;34.43;;;17.13;;
19111;SDS011;9688;51.906;8.376;2023-05-10T09:23:22;35.03;;;18.20;;
19111;SDS011;9688;51.906;8.376;2023-05-10T09:26:21;36.13;;;17.57;;
19111;SDS011;9688;51.906;8.376;2023-05-10T09:29:07;34.90;;;18.40;;
19111;SDS011;9688;51.906;8.376;2023-05-10T09:31:53;29.50;;;17.77;;
19111;SDS011;9688;51.906;8.376;2023-05-10T09:34:39;35.77;;;18.23;;
19111;SDS011;9688;51.906;8.376;2023-05-10T09:37:35;35.43;;;18.60;;
19111;SDS011;9688;51.906;8.376;2023-05-10T09:40:21;32.30;;;17.93;;
19111;SDS011;9688;51.906;8.376;2023-05-10T09:43:09;44.53;;;22.17;;
19111;SDS011;9688;51.906;8.376;2023-05-10T09:45:57;31.60;;;17.33;;
19111;SDS011;9688;51.906;8.376;2023-05-10T09:48:45;33.63;;;16.63;;
19111;SDS011;9688;51.906;8.376;2023-05-10T09:51:32;26.80;;;14.50;;
19111;SDS011;9688;51.906;8.376;2023-05-10T09:54:22;25.07;;;15.20;;
19111;SDS011;9688;51.906;8.376;2023-05-10T09:57:18;25.50;;;14.80;;
19111;SDS011;9688;51.906;8.376;2023-05-10T10:00:08;22.43;;;12.47;;
19111;SDS011;9688;51.906;8.376;2023-05-10T10:02:57;20.93;;;12.47;;
19111;SDS011;9688;51.906;8.376;2023-05-10T10:05:47;24.93;;;12.63;;
19111;SDS011;9688;51.906;8.376;2023-05-10T10:08:46;26.43;;;13.10;;
19111;SDS011;9688;51.906;8.376;2023-05-10T10:11:36;21.70;;;12.57;;
19111;SDS011;9688;51.906;8.376;2023-05-10T10:14:25;20.63;;;12.70;;
19111;SDS011;9688;51.906;8.376;2023-05-10T10:17:15;21.33;;;12.23;;
19111;SDS011;9688;51.906;8.376;2023-05-10T10:20:04;22.13;;;12.50;;
19111;SDS011;9688;51.906;8.376;2023-05-10T10:22:54;20.40;;;12.80;;
19111;SDS011;9688;51.906;8.376;2023-05-10T10:25:41;20.40;;;12.43;;
19111;SDS011;9688;51.906;8.376;2023-05-10T10:28:32;17.77;;;10.60;;
19111;SDS011;9688;51.906;8.376;2023-05-10T10:31:32;19.33;;;11.13;;
19111;SDS011;9688;51.906;8.376;2023-05-10T10:34:25;17.43;;;10.57;;
19111;SDS011;9688;51.906;8.376;2023-05-10T10:37:15;18.40;;;11.37;;
19111;SDS011;9688;51.906;8.376;2023-05-10T10:46:13;19.60;;;11.10;;
19111;SDS011;9688;51.906;8.376;2023-05-10T10:49:08;19.43;;;11.23;;
19111;SDS011;9688;51.906;8.376;2023-05-10T10:55:08;14.37;;;9.57;;
19111;SDS011;9688;51.906;8.376;2023-05-10T10:58:04;19.00;;;10.67;;
19111;SDS011;9688;51.906;8.376;2023-05-10T11:01:18;14.67;;;9.73;;
19111;SDS011;9688;51.906;8.376;2023-05-10T11:04:19;22.07;;;10.80;;
19111;SDS011;9688;51.906;8.376;2023-05-10T11:07:17;17.83;;;9.13;;
19111;SDS011;9688;51.906;8.376;2023-05-10T11:10:05;20.33;;;10.60;;
19111;SDS011;9688;51.906;8.376;2023-05-10T11:13:00;22.80;;;10.87;;
19111;SDS011;9688;51.906;8.376;2023-05-10T11:15:55;19.57;;;10.83;;
19111;SDS011;9688;51.906;8.376;2023-05-10T11:18:56;18.53;;;10.83;;
19111;SDS011;9688;51.906;8.376;2023-05-10T11:24:59;19.40;;;10.90;;
19111;SDS011;9688;51.906;8.376;2023-05-10T11:27:47;19.40;;;11.03;;
19111;SDS011;9688;51.906;8.376;2023-05-10T11:30:35;22.60;;;12.50;;
19111;SDS011;9688;51.906;8.376;2023-05-10T11:33:26;29.07;;;12.40;;
19111;SDS011;9688;51.906;8.376;2023-05-10T11:36:16;20.03;;;10.80;;
19111;SDS011;9688;51.906;8.376;2023-05-10T11:39:09;16.73;;;11.07;;
19111;SDS011;9688;51.906;8.376;2023-05-10T11:41:59;25.40;;;12.73;;
19111;SDS011;9688;51.906;8.376;2023-05-10T11:44:48;21.90;;;12.57;;
19111;SDS011;9688;51.906;8.376;2023-05-10T11:47:34;25.23;;;13.20;;
19111;SDS011;9688;51.906;8.376;2023-05-10T11:50:20;26.33;;;13.83;;
19111;SDS011;9688;51.906;8.376;2023-05-10T11:53:08;27.60;;;14.77;;
19111;SDS011;9688;51.906;8.376;2023-05-10T11:55:54;23.53;;;13.37;;
19111;SDS011;9688;51.906;8.376;2023-05-10T11:58:42;22.60;;;13.17;;
19111;SDS011;9688;51.906;8.376;2023-05-10T12:01:28;20.90;;;12.17;;
19111;SDS011;9688;51.906;8.376;2023-05-10T12:04:14;22.07;;;12.37;;
19111;SDS011;9688;51.906;8.376;2023-05-10T12:07:00;23.83;;;12.83;;
19111;SDS011;9688;51.906;8.376;2023-05-10T12:13:05;25.83;;;13.03;;
19111;SDS011;9688;51.906;8.376;2023-05-10T12:15:57;24.67;;;12.93;;
19111;SDS011;9688;51.906;8.376;2023-05-10T12:19:04;23.03;;;12.93;;
19111;SDS011;9688;51.906;8.376;2023-05-10T12:21:50;25.63;;;12.87;;
19111;SDS011;9688;51.906;8.376;2023-05-10T12:24:36;22.90;;;12.40;;
19111;SDS011;9688;51.906;8.376;2023-05-10T12:27:25;23.90;;;11.83;;
19111;SDS011;9688;51.906;8.376;2023-05-10T12:30:21;24.27;;;12.50;;
19111;SDS011;9688;51.906;8.376;2023-05-10T12:33:08;26.10;;;13.03;;
19111;SDS011;9688;51.906;8.376;2023-05-10T12:35:58;21.23;;;12.37;;
19111;SDS011;9688;51.906;8.376;2023-05-10T12:38:45;17.93;;;11.30;;
19111;SDS011;9688;51.906;8.376;2023-05-10T12:41:32;18.20;;;10.77;;
19111;SDS011;9688;51.906;8.376;2023-05-10T12:44:20;20.97;;;10.90;;
19111;SDS011;9688;51.906;8.376;2023-05-10T12:47:06;18.47;;;10.83;;
19111;SDS011;9688;51.906;8.376;2023-05-10T12:49:52;22.13;;;11.77;;
19111;SDS011;9688;51.906;8.376;2023-05-10T12:52:39;20.23;;;11.17;;
19111;SDS011;9688;51.906;8.376;2023-05-10T12:55:25;21.67;;;11.57;;
19111;SDS011;9688;51.906;8.376;2023-05-10T12:58:10;19.97;;;11.43;;
19111;SDS011;9688;51.906;8.376;2023-05-10T13:00:58;19.77;;;11.37;;
19111;SDS011;9688;51.906;8.376;2023-05-10T13:03:45;17.80;;;11.70;;
19111;SDS011;9688;51.906;8.376;2023-05-10T13:06:32;22.13;;;12.00;;
19111;SDS011;9688;51.906;8.376;2023-05-10T13:09:18;22.47;;;12.33;;
19111;SDS011;9688;51.906;8.376;2023-05-10T13:12:05;22.67;;;12.20;;
19111;SDS011;9688;51.906;8.376;2023-05-10T13:14:51;20.43;;;11.93;;
19111;SDS011;9688;51.906;8.376;2023-05-10T13:17:40;22.73;;;12.60;;
19111;SDS011;9688;51.906;8.376;2023-05-10T13:20:26;30.53;;;14.07;;
19111;SDS011;9688;51.906;8.376;2023-05-10T13:23:12;28.80;;;14.87;;
19111;SDS011;9688;51.906;8.376;2023-05-10T13:25:58;31.70;;;14.93;;
19111;SDS011;9688;51.906;8.376;2023-05-10T13:28:44;23.03;;;12.20;;
19111;SDS011;9688;51.906;8.376;2023-05-10T13:31:31;23.70;;;11.97;;
19111;SDS011;9688;51.906;8.376;2023-05-10T13:34:18;23.47;;;12.93;;
19111;SDS011;9688;51.906;8.376;2023-05-10T13:37:11;23.60;;;12.30;;
19111;SDS011;9688;51.906;8.376;2023-05-10T13:39:56;24.20;;;13.77;;
19111;SDS011;9688;51.906;8.376;2023-05-10T13:42:42;23.37;;;12.90;;
19111;SDS011;9688;51.906;8.376;2023-05-10T13:45:28;23.20;;;11.93;;
19111;SDS011;9688;51.906;8.376;2023-05-10T13:48:14;20.30;;;11.53;;
19111;SDS011;9688;51.906;8.376;2023-05-10T13:51:02;19.63;;;11.97;;
19111;SDS011;9688;51.906;8.376;2023-05-10T13:53:48;22.00;;;11.70;;
19111;SDS011;9688;51.906;8.376;2023-05-10T13:56:36;22.87;;;12.17;;
19111;SDS011;9688;51.906;8.376;2023-05-10T13:59:22;21.93;;;12.03;;
19111;SDS011;9688;51.906;8.376;2023-05-10T14:02:08;21.60;;;12.50;;
19111;SDS011;9688;51.906;8.376;2023-05-10T14:04:57;19.50;;;12.00;;
19111;SDS011;9688;51.906;8.376;2023-05-10T14:07:45;22.27;;;12.27;;
19111;SDS011;9688;51.906;8.376;2023-05-10T14:10:32;19.80;;;11.27;;
19111;SDS011;9688;51.906;8.376;2023-05-10T14:13:18;18.87;;;11.90;;
19111;SDS011;9688;51.906;8.376;2023-05-10T14:16:04;25.83;;;12.50;;
19111;SDS011;9688;51.906;8.376;2023-05-10T14:18:51;21.90;;;12.47;;
19111;SDS011;9688;51.906;8.376;2023-05-10T14:21:36;22.07;;;12.40;;
19111;SDS011;9688;51.906;8.376;2023-05-10T14:24:24;21.43;;;12.90;;
19111;SDS011;9688;51.906;8.376;2023-05-10T14:27:10;25.97;;;14.13;;
19111;SDS011;9688;51.906;8.376;2023-05-10T14:29:56;23.80;;;13.67;;
19111;SDS011;9688;51.906;8.376;2023-05-10T14:32:44;20.63;;;13.10;;
19111;SDS011;9688;51.906;8.376;2023-05-10T14:35:30;25.17;;;14.00;;
19111;SDS011;9688;51.906;8.376;2023-05-10T14:38:16;25.37;;;14.40;;
19111;SDS011;9688;51.906;8.376;2023-05-10T14:41:04;24.83;;;14.13;;
19111;SDS011;9688;51.906;8.376;2023-05-10T14:43:50;23.37;;;13.13;;
19111;SDS011;9688;51.906;8.376;2023-05-10T14:46:37;21.63;;;13.20;;
19111;SDS011;9688;51.906;8.376;2023-05-10T14:49:25;19.97;;;12.70;;
19111;SDS011;9688;51.906;8.376;2023-05-10T14:55:29;22.23;;;13.07;;
19111;SDS011;9688;51.906;8.376;2023-05-10T14:58:21;19.73;;;12.20;;
19111;SDS011;9688;51.906;8.376;2023-05-10T15:01:09;19.83;;;12.40;;
19111;SDS011;9688;51.906;8.376;2023-05-10T15:03:57;21.07;;;12.30;;
19111;SDS011;9688;51.906;8.376;2023-05-10T15:06:45;20.13;;;12.60;;
19111;SDS011;9688;51.906;8.376;2023-05-10T15:09:31;21.80;;;12.30;;
19111;SDS011;9688;51.906;8.376;2023-05-10T15:12:20;21.90;;;12.50;;
19111;SDS011;9688;51.906;8.376;2023-05-10T15:15:18;20.37;;;12.40;;
19111;SDS011;9688;51.906;8.376;2023-05-10T15:18:05;21.97;;;11.40;;
19111;SDS011;9688;51.906;8.376;2023-05-10T15:20:52;20.17;;;12.43;;
19111;SDS011;9688;51.906;8.376;2023-05-10T15:23:40;23.70;;;13.10;;
19111;SDS011;9688;51.906;8.376;2023-05-10T15:26:25;22.20;;;12.63;;
19111;SDS011;9688;51.906;8.376;2023-05-10T15:29:12;26.47;;;13.27;;
19111;SDS011;9688;51.906;8.376;2023-05-10T15:32:05;25.77;;;14.47;;
19111;SDS011;9688;51.906;8.376;2023-05-10T15:34:52;25.77;;;13.97;;
19111;SDS011;9688;51.906;8.376;2023-05-10T15:37:38;27.73;;;13.47;;
19111;SDS011;9688;51.906;8.376;2023-05-10T15:40:24;26.47;;;14.23;;
19111;SDS011;9688;51.906;8.376;2023-05-10T15:43:10;28.97;;;15.30;;
19111;SDS011;9688;51.906;8.376;2023-05-10T15:45:56;26.60;;;14.47;;
19111;SDS011;9688;51.906;8.376;2023-05-10T15:48:44;26.00;;;13.47;;
19111;SDS011;9688;51.906;8.376;2023-05-10T15:51:29;21.20;;;11.33;;
19111;SDS011;9688;51.906;8.376;2023-05-10T15:54:16;17.77;;;10.23;;
19111;SDS011;9688;51.906;8.376;2023-05-10T15:57:03;18.77;;;10.80;;
19111;SDS011;9688;51.906;8.376;2023-05-10T15:59:48;19.20;;;11.07;;
19111;SDS011;9688;51.906;8.376;2023-05-10T16:02:34;22.83;;;10.73;;
19111;SDS011;9688;51.906;8.376;2023-05-10T16:05:22;19.80;;;10.47;;
19111;SDS011;9688;51.906;8.376;2023-05-10T16:08:07;23.33;;;11.87;;
19111;SDS011;9688;51.906;8.376;2023-05-10T16:10:53;20.50;;;11.30;;
19111;SDS011;9688;51.906;8.376;2023-05-10T16:13:39;26.07;;;12.23;;
19111;SDS011;9688;51.906;8.376;2023-05-10T16:16:24;28.07;;;13.13;;
19111;SDS011;9688;51.906;8.376;2023-05-10T16:19:13;27.63;;;13.90;;
19111;SDS011;9688;51.906;8.376;2023-05-10T16:22:04;30.87;;;14.10;;
19111;SDS011;9688;51.906;8.376;2023-05-10T16:24:53;33.20;;;14.70;;
19111;SDS011;9688;51.906;8.376;2023-05-10T16:27:40;32.60;;;15.27;;
19111;SDS011;9688;51.906;8.376;2023-05-10T16:30:29;36.07;;;17.37;;
19111;SDS011;9688;51.906;8.376;2023-05-10T16:33:15;40.47;;;18.17;;
19111;SDS011;9688;51.906;8.376;2023-05-10T16:36:01;44.63;;;19.57;;
19111;SDS011;9688;51.906;8.376;2023-05-10T16:38:48;41.53;;;19.87;;
19111;SDS011;9688;51.906;8.376;2023-05-10T16:41:35;43.97;;;19.40;;
19111;SDS011;9688;51.906;8.376;2023-05-10T16:44:23;43.20;;;19.27;;
19111;SDS011;9688;51.906;8.376;2023-05-10T16:47:10;38.53;;;19.10;;
19111;SDS011;9688;51.906;8.376;2023-05-10T16:49:56;39.90;;;18.20;;
19111;SDS011;9688;51.906;8.376;2023-05-10T16:52:42;33.63;;;16.10;;
19111;SDS011;9688;51.906;8.376;2023-05-10T16:55:29;25.70;;;14.10;;
19111;SDS011;9688;51.906;8.376;2023-05-10T16:58:15;30.13;;;15.77;;
19111;SDS011;9688;51.906;8.376;2023-05-10T17:01:04;30.23;;;14.83;;
19111;SDS011;9688;51.906;8.376;2023-05-10T17:03:50;34.37;;;15.47;;
19111;SDS011;9688;51.906;8.376;2023-05-10T17:06:36;34.63;;;16.30;;
19111;SDS011;9688;51.906;8.376;2023-05-10T17:09:22;33.27;;;16.43;;